Time;durP1;ratioP1;P1;durP2;ratioP2;P2;SDS_P1;SDS_P2;PMS_P1;PMS_P2;Temp;Humidity;BMP_temperature;BMP_pressure;BME280_temperature;BME280_humidity;BME280_pressure;Samples;Min_cycle;Max_cycle;Signal;HPM_P1;HPM_P2
2021/11/14 00:00:48;;;;;;;;;;;11.60;59.00;;;;;;5073638;28;20003;-66
2021/11/14 00:03:14;;;;;;;;;;;11.60;59.00;;;;;;5073409;28;19955;-66
2021/11/14 00:05:40;;;;;;;;;;;11.60;59.10;;;;;;5073525;28;19943;-66
2021/11/14 00:08:06;;;;;;;;;;;11.60;59.20;;;;;;5073443;28;20375;-66
2021/11/14 00:10:32;;;;;;;;;;;11.60;59.20;;;;;;5073400;28;19962;-65
2021/11/14 00:12:58;;;;;;;;;;;11.60;59.20;;;;;;5073169;28;19909;-65
2021/11/14 00:15:24;;;;;;;;;;;11.60;59.30;;;;;;5072077;28;19919;-66
2021/11/14 00:17:50;;;;;;;;;;;11.60;59.20;;;;;;5071987;28;19912;-66
2021/11/14 00:20:19;;;;;;;;;;;11.70;59.30;;;;;;5073270;28;20007;-66
2021/11/14 00:22:45;;;;;;;;;;;11.70;59.30;;;;;;5073315;28;19992;-65
2021/11/14 00:25:13;;;;;;;;;;;11.70;59.20;;;;;;5073293;28;19948;-66
2021/11/14 00:27:39;;;;;;;;;;;11.70;59.20;;;;;;5073222;28;19905;-66
2021/11/14 00:30:05;;;;;;;;;;;11.70;59.10;;;;;;5073272;28;19943;-65
2021/11/14 00:32:30;;;;;;;;;;;11.70;59.20;;;;;;5073246;28;19970;-66
2021/11/14 00:34:56;;;;;;;;;;;11.70;59.20;;;;;;5073190;28;20335;-66
2021/11/14 00:37:22;;;;;;;;;;;11.70;59.20;;;;;;5073051;28;20013;-65
2021/11/14 00:39:47;;;;;;;;;;;11.80;59.20;;;;;;5073118;28;19912;-66
2021/11/14 00:42:13;;;;;;;;;;;11.80;59.20;;;;;;5073121;28;19908;-66
2021/11/14 00:44:39;;;;;;;;;;;11.80;59.20;;;;;;5073096;28;19922;-66
2021/11/14 00:47:05;;;;;;;;;;;11.80;59.10;;;;;;5073054;28;19909;-65
2021/11/14 00:49:31;;;;;;;;;;;11.80;59.60;;;;;;5072928;28;20377;-66
2021/11/14 00:51:56;;;;;;;;;;;11.80;59.00;;;;;;5073004;28;20050;-66
2021/11/14 00:54:22;;;;;;;;;;;11.80;58.90;;;;;;5072947;28;19908;-66
2021/11/14 00:56:47;;;;;;;;;;;11.80;58.80;;;;;;5072792;28;19951;-66
2021/11/14 00:59:13;;;;;;;;;;;11.70;58.70;;;;;;5072890;28;19917;-65
2021/11/14 01:01:39;;;;;;;;;;;11.70;58.80;;;;;;5072892;28;19915;-65
2021/11/14 01:04:04;;;;;;;;;;;11.70;58.80;;;;;;5072796;28;20350;-65
2021/11/14 01:06:30;;;;;;;;;;;11.60;58.80;;;;;;5071533;28;19909;-65
2021/11/14 01:08:56;;;;;;;;;;;11.60;58.80;;;;;;5072842;28;19913;-66
2021/11/14 01:11:22;;;;;;;;;;;11.60;58.90;;;;;;5072851;28;20349;-66
2021/11/14 01:13:47;;;;;;;;;;;11.50;58.90;;;;;;5072535;28;19920;-66
2021/11/14 01:16:15;;;;;;;;;;;11.50;58.90;;;;;;5072748;28;19999;-66
2021/11/14 01:18:41;;;;;;;;;;;11.50;59.00;;;;;;5072708;28;19939;-66
2021/11/14 01:21:08;;;;;;;;;;;11.50;59.10;;;;;;5072774;28;19915;-66
2021/11/14 01:23:34;;;;;;;;;;;11.50;59.10;;;;;;5072746;28;19908;-65
2021/11/14 01:26:00;;;;;;;;;;;11.50;59.10;;;;;;5072737;28;19962;-66
2021/11/14 01:28:25;;;;;;;;;;;11.50;59.10;;;;;;5072971;28;19908;-66
2021/11/14 01:30:52;;;;;;;;;;;11.50;59.20;;;;;;5072949;28;19919;-66
2021/11/14 01:33:19;;;;;;;;;;;11.50;59.20;;;;;;5072837;28;20285;-65
2021/11/14 01:35:45;;;;;;;;;;;11.50;59.20;;;;;;5073058;28;19915;-66
2021/11/14 01:38:11;;;;;;;;;;;11.50;59.20;;;;;;5072212;28;20388;-66
2021/11/14 01:40:36;;;;;;;;;;;11.50;59.20;;;;;;5076428;28;20005;-65
2021/11/14 01:43:02;;;;;;;;;;;11.50;59.20;;;;;;5076380;28;20005;-66
2021/11/14 01:45:28;;;;;;;;;;;11.50;59.30;;;;;;5076357;28;20046;-65
2021/11/14 01:47:54;;;;;;;;;;;11.50;59.30;;;;;;5076233;28;19970;-66
2021/11/14 01:50:20;;;;;;;;;;;11.50;59.20;;;;;;5076222;28;19916;-66
2021/11/14 01:52:47;;;;;;;;;;;11.50;59.20;;;;;;5076146;28;19908;-65
2021/11/14 01:55:14;;;;;;;;;;;11.40;59.10;;;;;;5076141;28;20269;-65
2021/11/14 01:57:39;;;;;;;;;;;11.40;59.00;;;;;;5076213;28;20352;-66
2021/11/14 02:00:07;;;;;;;;;;;11.30;58.90;;;;;;5076063;28;19909;-65
2021/11/14 02:02:32;;;;;;;;;;;11.30;58.90;;;;;;5075955;28;19909;-65
2021/11/14 02:04:58;;;;;;;;;;;11.20;58.90;;;;;;5075799;28;20339;-66
2021/11/14 02:07:23;;;;;;;;;;;11.20;59.00;;;;;;5075772;28;19908;-65
2021/11/14 02:09:49;;;;;;;;;;;11.10;59.00;;;;;;5075730;28;19909;-65
2021/11/14 02:12:15;;;;;;;;;;;11.10;59.00;;;;;;5075638;28;19908;-65
2021/11/14 02:14:41;;;;;;;;;;;11.10;59.20;;;;;;5074220;28;20339;-66
2021/11/14 02:17:07;;;;;;;;;;;11.00;59.20;;;;;;5075465;28;19919;-65
2021/11/14 02:19:32;;;;;;;;;;;11.00;59.20;;;;;;5075575;28;19916;-65
2021/11/14 02:21:58;;;;;;;;;;;11.00;59.30;;;;;;5075563;28;19923;-65
2021/11/14 02:24:24;;;;;;;;;;;10.90;59.30;;;;;;5075488;28;19995;-65
2021/11/14 02:26:50;;;;;;;;;;;10.90;59.40;;;;;;5075353;28;19916;-66
2021/11/14 02:29:16;;;;;;;;;;;10.90;59.50;;;;;;5075357;28;19915;-66
2021/11/14 02:31:42;;;;;;;;;;;10.90;59.70;;;;;;5075415;28;19992;-66
2021/11/14 02:34:08;;;;;;;;;;;11.00;59.90;;;;;;5075390;28;20285;-66
2021/11/14 02:36:33;;;;;;;;;;;11.00;60.00;;;;;;5075303;28;19996;-66
2021/11/14 02:38:59;;;;;;;;;;;11.00;60.00;;;;;;5075226;28;19912;-65
2021/11/14 02:41:25;;;;;;;;;;;11.10;60.10;;;;;;5075595;28;19999;-65
2021/11/14 02:43:51;;;;;;;;;;;11.10;60.10;;;;;;5075210;28;19908;-66
2021/11/14 02:46:17;;;;;;;;;;;11.10;60.20;;;;;;5075157;28;20019;-65
2021/11/14 02:48:43;;;;;;;;;;;11.20;60.10;;;;;;5075047;28;20109;-66
2021/11/14 02:51:10;;;;;;;;;;;11.20;60.10;;;;;;5073943;28;19909;-66
2021/11/14 02:53:36;;;;;;;;;;;11.30;60.10;;;;;;5075032;28;19908;-65
2021/11/14 02:56:02;;;;;;;;;;;11.30;60.10;;;;;;5074980;28;20328;-65
2021/11/14 02:58:28;;;;;;;;;;;11.30;60.00;;;;;;5074813;28;19912;-66
2021/11/14 03:01:00;;;;;;;;;;;11.40;60.00;;;;;;5074895;28;19961;-66
2021/11/14 03:03:26;;;;;;;;;;;11.40;60.00;;;;;;5074726;28;19916;-65
2021/11/14 03:05:52;;;;;;;;;;;11.40;60.00;;;;;;5074710;28;19950;-65
2021/11/14 03:08:18;;;;;;;;;;;11.50;60.00;;;;;;5074752;28;19916;-65
2021/11/14 03:10:43;;;;;;;;;;;11.50;60.00;;;;;;5074533;28;19947;-65
2021/11/14 03:13:14;;;;;;;;;;;11.50;59.90;;;;;;5074392;28;19913;-66
2021/11/14 03:15:52;;;;;;;;;;;11.50;59.90;;;;;;5074680;28;19918;-66
2021/11/14 03:18:19;;;;;;;;;;;11.60;59.90;;;;;;5074531;28;19939;-65
2021/11/14 03:20:46;;;;;;;;;;;11.60;59.80;;;;;;5074455;28;19974;-65
2021/11/14 03:23:12;;;;;;;;;;;11.60;59.70;;;;;;5074417;28;19908;-65
2021/11/14 03:25:38;;;;;;;;;;;11.60;59.70;;;;;;5074368;28;19944;-64
2021/11/14 03:28:04;;;;;;;;;;;11.60;59.70;;;;;;5074332;28;20258;-64
2021/11/14 03:30:34;;;;;;;;;;;11.60;59.60;;;;;;5073047;28;19909;-65
2021/11/14 03:33:00;;;;;;;;;;;11.60;59.60;;;;;;5074147;28;19961;-64
2021/11/14 03:35:26;;;;;;;;;;;11.60;59.60;;;;;;5074255;28;20404;-65
2021/11/14 03:37:52;;;;;;;;;;;11.60;59.60;;;;;;5074069;28;19963;-64
2021/11/14 03:40:19;;;;;;;;;;;11.60;59.70;;;;;;5074089;28;19909;-64
2021/11/14 03:42:45;;;;;;;;;;;11.60;59.70;;;;;;5074053;28;20301;-65
2021/11/14 03:45:10;;;;;;;;;;;11.70;59.70;;;;;;5074061;28;20326;-64
2021/11/14 03:47:37;;;;;;;;;;;11.70;59.70;;;;;;5073906;28;19909;-65
2021/11/14 03:50:03;;;;;;;;;;;11.70;59.80;;;;;;5073880;28;20263;-64
2021/11/14 03:52:29;;;;;;;;;;;11.70;59.80;;;;;;5073948;28;19911;-65
2021/11/14 03:54:55;;;;;;;;;;;11.70;59.70;;;;;;5073773;28;19962;-65
2021/11/14 03:57:20;;;;;;;;;;;11.80;59.70;;;;;;5072431;28;20440;-65
2021/11/14 03:59:46;;;;;;;;;;;11.80;59.60;;;;;;5073699;28;19908;-65
2021/11/14 04:02:11;;;;;;;;;;;11.80;59.60;;;;;;5073430;28;19931;-65
2021/11/14 04:04:37;;;;;;;;;;;11.80;59.60;;;;;;5073530;28;19912;-65
2021/11/14 04:07:03;;;;;;;;;;;11.80;59.60;;;;;;5073522;28;20282;-65
2021/11/14 04:09:28;;;;;;;;;;;11.80;59.60;;;;;;5073394;28;19908;-65
2021/11/14 04:11:54;;;;;;;;;;;11.80;59.60;;;;;;5072214;28;19919;-65
2021/11/14 04:14:19;;;;;;;;;;;11.80;59.50;;;;;;5072003;28;19986;-65
2021/11/14 04:16:45;;;;;;;;;;;11.80;59.50;;;;;;5073365;28;19915;-65
2021/11/14 04:19:11;;;;;;;;;;;11.70;59.40;;;;;;5073420;28;20376;-65
2021/11/14 04:21:37;;;;;;;;;;;11.70;59.40;;;;;;5073400;28;19967;-65
2021/11/14 04:24:03;;;;;;;;;;;11.70;59.40;;;;;;5073294;28;19909;-65
2021/11/14 04:26:29;;;;;;;;;;;11.70;59.40;;;;;;5073398;28;19934;-65
2021/11/14 04:28:54;;;;;;;;;;;11.70;59.50;;;;;;5073265;28;20362;-65
2021/11/14 04:31:21;;;;;;;;;;;11.70;59.40;;;;;;5073259;28;19962;-65
2021/11/14 04:33:47;;;;;;;;;;;11.70;59.50;;;;;;5073188;28;19916;-65
2021/11/14 04:36:12;;;;;;;;;;;11.70;59.50;;;;;;5073117;28;19909;-65
2021/11/14 04:38:38;;;;;;;;;;;11.70;59.50;;;;;;5073085;28;20381;-65
2021/11/14 04:41:04;;;;;;;;;;;11.80;59.40;;;;;;5073166;28;20390;-65
2021/11/14 04:43:29;;;;;;;;;;;11.80;59.40;;;;;;5073080;28;19999;-65
2021/11/14 04:45:55;;;;;;;;;;;11.80;59.50;;;;;;5072977;28;19908;-65
2021/11/14 04:48:22;;;;;;;;;;;11.80;59.50;;;;;;5073012;28;19911;-65
2021/11/14 04:50:47;;;;;;;;;;;11.80;59.50;;;;;;5072989;28;20285;-65
2021/11/14 04:53:13;;;;;;;;;;;11.90;60.10;;;;;;5072864;28;19908;-65
2021/11/14 04:55:40;;;;;;;;;;;11.90;59.50;;;;;;5072925;28;19905;-65
2021/11/14 04:58:06;;;;;;;;;;;11.90;59.50;;;;;;5072800;28;20328;-65
2021/11/14 05:00:35;;;;;;;;;;;11.90;59.40;;;;;;5072926;28;19909;-65
2021/11/14 05:03:01;;;;;;;;;;;11.90;59.40;;;;;;5071613;28;19909;-64
2021/11/14 05:05:26;;;;;;;;;;;11.90;59.30;;;;;;5072831;28;19966;-65
2021/11/14 05:07:52;;;;;;;;;;;12.00;59.30;;;;;;5072755;28;19912;-65
2021/11/14 05:10:18;;;;;;;;;;;12.00;59.30;;;;;;5072867;28;19908;-65
2021/11/14 05:12:43;;;;;;;;;;;11.90;59.20;;;;;;5072985;28;20399;-65
2021/11/14 05:15:09;;;;;;;;;;;12.00;59.30;;;;;;5076782;28;19928;-65
2021/11/14 05:17:35;;;;;;;;;;;12.00;59.30;;;;;;5076842;28;19951;-65
2021/11/14 05:20:01;;;;;;;;;;;12.00;59.30;;;;;;5076868;28;20369;-65
2021/11/14 05:22:27;;;;;;;;;;;12.00;59.20;;;;;;5076878;28;19995;-65
2021/11/14 05:24:52;;;;;;;;;;;12.00;59.20;;;;;;5076798;28;19963;-67
2021/11/14 05:27:18;;;;;;;;;;;12.00;59.30;;;;;;5075539;28;20377;-65
2021/11/14 05:29:44;;;;;;;;;;;12.00;59.20;;;;;;5076669;28;19931;-65
2021/11/14 05:32:09;;;;;;;;;;;12.00;59.10;;;;;;5076705;28;19960;-65
2021/11/14 05:34:35;;;;;;;;;;;12.00;59.10;;;;;;5076585;28;20254;-65
2021/11/14 05:37:01;;;;;;;;;;;11.90;59.00;;;;;;5076495;28;19916;-65
2021/11/14 05:39:26;;;;;;;;;;;11.90;59.00;;;;;;5076740;28;19909;-65
2021/11/14 05:41:52;;;;;;;;;;;11.90;59.00;;;;;;5076458;28;20365;-65
2021/11/14 05:44:18;;;;;;;;;;;11.90;59.00;;;;;;5076423;28;19916;-65
2021/11/14 05:46:44;;;;;;;;;;;11.80;59.00;;;;;;5076338;28;19961;-65
2021/11/14 05:49:09;;;;;;;;;;;11.80;59.10;;;;;;5076314;28;19914;-65
2021/11/14 05:51:36;;;;;;;;;;;11.80;59.10;;;;;;5076281;28;19991;-65
2021/11/14 05:54:02;;;;;;;;;;;11.80;59.20;;;;;;5076212;28;19931;-65
2021/11/14 05:56:27;;;;;;;;;;;11.80;59.20;;;;;;5074952;28;19909;-65
2021/11/14 05:59:21;;;;;;;;;;;11.80;59.30;;;;;;5076061;28;19919;-65
2021/11/14 06:01:50;;;;;;;;;;;11.80;59.30;;;;;;5075930;28;20457;-65
2021/11/14 06:04:27;;;;;;;;;;;11.80;59.30;;;;;;5075940;28;19908;-65
2021/11/14 06:06:52;;;;;;;;;;;11.80;59.30;;;;;;5075890;28;19991;-66
2021/11/14 06:09:18;;;;;;;;;;;11.80;59.30;;;;;;5074633;28;20355;-65
2021/11/14 06:11:43;;;;;;;;;;;11.80;59.20;;;;;;5075879;28;19958;-66
2021/11/14 06:14:09;;;;;;;;;;;11.80;59.20;;;;;;5075648;28;19966;-66
2021/11/14 06:16:34;;;;;;;;;;;11.80;59.20;;;;;;5075766;28;20408;-65
2021/11/14 06:19:00;;;;;;;;;;;11.80;59.20;;;;;;5075682;28;19919;-66
2021/11/14 06:21:26;;;;;;;;;;;11.80;59.20;;;;;;5075757;28;20401;-66
2021/11/14 06:23:52;;;;;;;;;;;11.80;59.20;;;;;;5075498;28;19909;-66
2021/11/14 06:26:18;;;;;;;;;;;11.80;59.20;;;;;;5075629;28;20370;-66
2021/11/14 06:28:44;;;;;;;;;;;11.80;59.30;;;;;;5075606;28;19916;-66
2021/11/14 06:31:09;;;;;;;;;;;11.80;59.30;;;;;;5075523;28;19908;-66
2021/11/14 06:33:35;;;;;;;;;;;11.70;59.30;;;;;;5075537;28;19915;-66
2021/11/14 06:36:01;;;;;;;;;;;11.70;59.30;;;;;;5075465;28;19966;-66
2021/11/14 06:38:26;;;;;;;;;;;11.70;59.30;;;;;;5075365;28;19916;-66
2021/11/14 06:40:52;;;;;;;;;;;11.70;59.30;;;;;;5075356;28;19912;-66
2021/11/14 06:43:17;;;;;;;;;;;11.70;59.30;;;;;;5075345;28;19991;-66
2021/11/14 06:45:43;;;;;;;;;;;11.80;59.30;;;;;;5075269;28;19969;-66
2021/11/14 06:48:09;;;;;;;;;;;11.80;59.40;;;;;;5075245;28;19909;-66
2021/11/14 06:50:34;;;;;;;;;;;11.80;59.40;;;;;;5075120;28;20422;-66
2021/11/14 06:53:00;;;;;;;;;;;11.80;59.40;;;;;;5075118;28;19915;-67
2021/11/14 06:55:25;;;;;;;;;;;11.80;59.50;;;;;;5075044;28;19944;-67
2021/11/14 06:57:51;;;;;;;;;;;11.80;59.50;;;;;;5074971;28;20286;-66
2021/11/14 07:00:19;;;;;;;;;;;11.90;59.60;;;;;;5074972;28;19909;-66
2021/11/14 07:02:45;;;;;;;;;;;11.90;59.60;;;;;;5074890;28;19905;-66
2021/11/14 07:05:11;;;;;;;;;;;11.90;59.50;;;;;;5074645;28;19908;-67
2021/11/14 07:07:37;;;;;;;;;;;11.90;59.50;;;;;;5074841;28;19913;-66
2021/11/14 07:10:04;;;;;;;;;;;12.00;59.60;;;;;;5074739;28;20424;-66
2021/11/14 07:12:29;;;;;;;;;;;12.00;59.50;;;;;;5074686;28;19991;-67
2021/11/14 07:14:55;;;;;;;;;;;12.00;59.50;;;;;;5073272;28;19963;-66
2021/11/14 07:17:22;;;;;;;;;;;12.10;59.50;;;;;;5074617;28;19919;-66
2021/11/14 07:19:48;;;;;;;;;;;12.10;59.40;;;;;;5074664;28;19916;-66
2021/11/14 07:22:14;;;;;;;;;;;12.10;59.40;;;;;;5074428;28;19915;-66
2021/11/14 07:24:40;;;;;;;;;;;12.20;59.40;;;;;;5074476;28;19909;-66
2021/11/14 07:27:06;;;;;;;;;;;12.20;59.40;;;;;;5074629;28;19909;-66
2021/11/14 07:29:31;;;;;;;;;;;12.20;59.30;;;;;;5074473;28;20405;-66
2021/11/14 07:31:57;;;;;;;;;;;12.20;59.30;;;;;;5074388;28;20282;-65
2021/11/14 07:34:22;;;;;;;;;;;12.20;59.30;;;;;;5074364;28;19909;-66
2021/11/14 07:36:48;;;;;;;;;;;12.20;59.20;;;;;;5073854;28;20285;-67
2021/11/14 07:39:14;;;;;;;;;;;12.20;59.20;;;;;;5074465;28;19912;-66
2021/11/14 07:41:39;;;;;;;;;;;12.30;59.30;;;;;;5074886;28;19908;-66
2021/11/14 07:44:05;;;;;;;;;;;12.30;59.30;;;;;;5074197;28;19987;-66
2021/11/14 07:46:30;;;;;;;;;;;12.20;59.20;;;;;;5074022;28;19915;-66
2021/11/14 07:48:56;;;;;;;;;;;12.30;59.20;;;;;;5074097;28;20285;-66
2021/11/14 07:51:22;;;;;;;;;;;12.30;59.20;;;;;;5073923;28;19954;-66
2021/11/14 07:53:48;;;;;;;;;;;12.30;59.20;;;;;;5072646;28;20309;-66
2021/11/14 07:56:14;;;;;;;;;;;12.30;59.10;;;;;;5073877;28;19908;-66
2021/11/14 07:58:40;;;;;;;;;;;12.30;59.10;;;;;;5073678;28;20341;-67
2021/11/14 08:01:06;;;;;;;;;;;12.30;59.00;;;;;;5073788;28;20642;-66
2021/11/14 08:03:32;;;;;;;;;;;12.30;59.10;;;;;;5073512;28;19905;-66
2021/11/14 08:05:59;;;;;;;;;;;12.20;59.10;;;;;;5073703;28;19908;-66
2021/11/14 08:08:24;;;;;;;;;;;12.30;59.10;;;;;;5073702;28;19953;-66
2021/11/14 08:10:50;;;;;;;;;;;12.20;59.00;;;;;;5073606;28;19912;-66
2021/11/14 08:13:15;;;;;;;;;;;12.30;59.10;;;;;;5073401;28;19916;-66
2021/11/14 08:15:41;;;;;;;;;;;12.20;59.10;;;;;;5073491;28;19916;-66
2021/11/14 08:18:07;;;;;;;;;;;12.30;59.10;;;;;;5073400;28;19913;-66
2021/11/14 08:20:33;;;;;;;;;;;12.30;59.00;;;;;;5073791;28;19931;-66
2021/11/14 08:23:00;;;;;;;;;;;12.30;59.00;;;;;;5073440;28;20007;-67
2021/11/14 08:25:26;;;;;;;;;;;12.30;58.90;;;;;;5073451;28;19993;-66
2021/11/14 08:27:52;;;;;;;;;;;12.20;58.80;;;;;;5073352;28;19909;-66
2021/11/14 08:30:18;;;;;;;;;;;12.20;58.80;;;;;;5073339;28;19958;-66
2021/11/14 08:32:44;;;;;;;;;;;12.20;58.80;;;;;;5073266;28;19995;-66
2021/11/14 08:35:09;;;;;;;;;;;12.20;58.80;;;;;;5073211;28;19931;-66
2021/11/14 08:37:35;;;;;;;;;;;12.20;58.80;;;;;;5073222;28;19916;-66
2021/11/14 08:40:03;;;;;;;;;;;12.20;58.80;;;;;;5073219;28;19909;-66
2021/11/14 08:42:29;;;;;;;;;;;12.20;58.80;;;;;;5073090;28;19904;-66
2021/11/14 08:44:54;;;;;;;;;;;12.20;58.80;;;;;;5071931;28;19919;-66
2021/11/14 08:47:20;;;;;;;;;;;12.20;58.80;;;;;;5072379;28;19904;-66
2021/11/14 08:49:45;;;;;;;;;;;12.10;58.80;;;;;;5072881;28;20000;-66
2021/11/14 08:52:11;;;;;;;;;;;12.10;58.80;;;;;;5073131;28;19908;-66
2021/11/14 08:54:37;;;;;;;;;;;12.10;58.80;;;;;;5073095;28;19905;-66
2021/11/14 08:57:03;;;;;;;;;;;12.10;58.90;;;;;;5072975;28;19908;-66
2021/11/14 08:59:31;;;;;;;;;;;12.10;58.90;;;;;;5072978;28;19943;-66
2021/11/14 09:02:03;;;;;;;;;;;12.10;59.10;;;;;;5072844;28;19909;-66
2021/11/14 09:04:29;;;;;;;;;;;12.10;59.10;;;;;;5071696;28;19915;-67
2021/11/14 09:06:55;;;;;;;;;;;12.10;59.00;;;;;;5072908;28;19912;-66
2021/11/14 09:09:22;;;;;;;;;;;12.10;59.00;;;;;;5072931;28;19915;-66
2021/11/14 09:11:48;;;;;;;;;;;12.20;59.00;;;;;;5072968;28;19913;-66
2021/11/14 09:14:14;;;;;;;;;;;12.20;59.00;;;;;;5072684;28;19921;-67
2021/11/14 09:16:40;;;;;;;;;;;12.20;58.90;;;;;;5073134;28;19934;-66
2021/11/14 09:19:07;;;;;;;;;;;12.20;58.80;;;;;;5072734;28;19912;-67
2021/11/14 09:21:33;;;;;;;;;;;12.30;58.80;;;;;;5072746;28;19909;-66
2021/11/14 09:23:59;;;;;;;;;;;12.30;58.80;;;;;;5072650;28;19908;-66
2021/11/14 09:26:25;;;;;;;;;;;12.40;58.90;;;;;;5071453;28;19961;-67
2021/11/14 09:28:50;;;;;;;;;;;12.40;58.80;;;;;;5072727;28;19909;-66
2021/11/14 09:31:16;;;;;;;;;;;12.40;58.70;;;;;;5072771;28;20427;-66
2021/11/14 09:33:43;;;;;;;;;;;12.50;58.60;;;;;;5072644;28;19909;-66
2021/11/14 09:36:08;;;;;;;;;;;12.50;58.50;;;;;;5072364;28;20000;-66
2021/11/14 09:38:35;;;;;;;;;;;12.50;58.40;;;;;;5072464;28;20003;-66
2021/11/14 09:41:02;;;;;;;;;;;12.60;58.50;;;;;;5072552;28;19908;-66
2021/11/14 09:43:28;;;;;;;;;;;12.60;58.50;;;;;;5072435;28;19905;-66
2021/11/14 09:45:54;;;;;;;;;;;12.70;58.40;;;;;;5072603;28;20287;-66
2021/11/14 09:48:21;;;;;;;;;;;12.70;58.30;;;;;;5072467;28;19904;-66
2021/11/14 09:50:47;;;;;;;;;;;12.70;58.30;;;;;;5072358;28;19908;-66
2021/11/14 09:53:12;;;;;;;;;;;12.80;58.20;;;;;;5072372;28;20350;-66
2021/11/14 09:55:38;;;;;;;;;;;12.70;58.10;;;;;;5070967;28;19905;-66
2021/11/14 09:58:05;;;;;;;;;;;12.80;58.20;;;;;;5072257;28;19912;-65
2021/11/14 10:00:31;;;;;;;;;;;12.90;58.20;;;;;;5075189;28;19908;-66
2021/11/14 10:02:57;;;;;;;;;;;12.90;58.20;;;;;;5074756;28;19962;-66
2021/11/14 10:05:23;;;;;;;;;;;12.90;58.00;;;;;;5076225;28;19931;-66
2021/11/14 10:07:59;;;;;;;;;;;13.00;58.00;;;;;;5075942;28;19909;-66
2021/11/14 10:10:28;;;;;;;;;;;13.00;58.10;;;;;;5076526;28;20007;-66
2021/11/14 10:12:54;;;;;;;;;;;13.10;57.90;;;;;;5075803;28;20434;-66
2021/11/14 10:15:21;;;;;;;;;;;13.20;58.00;;;;;;5074306;28;20302;-67
2021/11/14 10:17:52;;;;;;;;;;;13.30;58.00;;;;;;5074273;28;19912;-66
2021/11/14 10:20:22;;;;;;;;;;;13.30;58.00;;;;;;5074327;28;19908;-66
2021/11/14 10:23:06;;;;;;;;;;;13.40;57.80;;;;;;5075714;28;19948;-66
2021/11/14 10:25:31;;;;;;;;;;;13.50;57.60;;;;;;5075536;28;19909;-66
2021/11/14 10:27:59;;;;;;;;;;;13.60;57.50;;;;;;5075542;28;19912;-66
2021/11/14 10:30:26;;;;;;;;;;;13.70;57.50;;;;;;5075389;28;19909;-66
2021/11/14 10:32:56;;;;;;;;;;;13.70;57.20;;;;;;5075502;28;19978;-66
2021/11/14 10:35:22;;;;;;;;;;;13.70;57.00;;;;;;5075473;28;19996;-66
2021/11/14 10:37:49;;;;;;;;;;;13.80;56.80;;;;;;5073951;28;19912;-66
2021/11/14 10:40:18;;;;;;;;;;;13.80;56.60;;;;;;5075198;28;20269;-66
2021/11/14 10:42:45;;;;;;;;;;;13.80;56.50;;;;;;5075092;28;20286;-66
2021/11/14 10:45:11;;;;;;;;;;;13.80;56.60;;;;;;5075145;28;19909;-66
2021/11/14 10:47:36;;;;;;;;;;;13.90;56.50;;;;;;5075267;28;19908;-66
2021/11/14 10:50:13;;;;;;;;;;;13.90;56.40;;;;;;5075133;28;19963;-66
2021/11/14 10:52:50;;;;;;;;;;;13.90;56.30;;;;;;5074941;28;19957;-66
2021/11/14 10:55:15;;;;;;;;;;;14.00;56.20;;;;;;5074976;28;19909;-67
2021/11/14 10:57:41;;;;;;;;;;;14.00;56.20;;;;;;5074790;28;20286;-66
2021/11/14 11:00:09;;;;;;;;;;;14.10;56.20;;;;;;5074801;28;19916;-66
2021/11/14 11:02:38;;;;;;;;;;;14.10;56.00;;;;;;5074963;28;20269;-67
2021/11/14 11:05:09;;;;;;;;;;;14.10;55.80;;;;;;5074864;28;20365;-66
2021/11/14 11:07:34;;;;;;;;;;;14.20;55.70;;;;;;5074836;28;19958;-67
2021/11/14 11:10:00;;;;;;;;;;;14.20;55.60;;;;;;5074272;28;19912;-67
2021/11/14 11:12:27;;;;;;;;;;;14.20;55.50;;;;;;5073962;28;19904;-66
2021/11/14 11:14:57;;;;;;;;;;;14.30;55.50;;;;;;5074552;28;19982;-67
2021/11/14 11:17:23;;;;;;;;;;;14.30;55.40;;;;;;5074493;28;19912;-67
2021/11/14 11:19:48;;;;;;;;;;;14.40;55.30;;;;;;5074601;28;19908;-67
2021/11/14 11:22:14;;;;;;;;;;;14.40;55.20;;;;;;5074497;28;19905;-66
2021/11/14 11:24:50;;;;;;;;;;;14.40;54.90;;;;;;5074400;28;19909;-66
2021/11/14 11:27:16;;;;;;;;;;;14.50;54.90;;;;;;5074404;28;19909;-67
2021/11/14 11:29:42;;;;;;;;;;;14.50;54.80;;;;;;5074125;28;19911;-67
2021/11/14 11:32:09;;;;;;;;;;;14.50;54.80;;;;;;5074086;28;20365;-66
2021/11/14 11:34:35;;;;;;;;;;;14.50;54.70;;;;;;5074135;28;19953;-67
2021/11/14 11:37:00;;;;;;;;;;;14.50;54.70;;;;;;5074130;28;20377;-67
2021/11/14 11:39:27;;;;;;;;;;;14.60;54.60;;;;;;5074048;28;19996;-67
2021/11/14 11:41:54;;;;;;;;;;;14.60;54.40;;;;;;5074140;28;19950;-66
2021/11/14 11:44:19;;;;;;;;;;;14.60;54.20;;;;;;5074051;28;19916;-66
2021/11/14 11:46:52;;;;;;;;;;;14.60;54.20;;;;;;5074106;28;19909;-66
2021/11/14 11:49:20;;;;;;;;;;;14.50;54.10;;;;;;5072580;28;20259;-66
2021/11/14 11:51:53;;;;;;;;;;;14.50;53.90;;;;;;5073849;28;19915;-66
2021/11/14 11:54:20;;;;;;;;;;;14.50;53.70;;;;;;5073843;28;20002;-66
2021/11/14 11:56:45;;;;;;;;;;;14.40;53.90;;;;;;5073817;28;19909;-66
2021/11/14 11:59:17;;;;;;;;;;;14.40;53.90;;;;;;5073565;28;19919;-66
2021/11/14 12:01:53;;;;;;;;;;;14.30;53.80;;;;;;5073728;28;20396;-66
2021/11/14 12:04:26;;;;;;;;;;;14.30;53.90;;;;;;5073607;28;19959;-67
2021/11/14 12:06:56;;;;;;;;;;;14.30;53.90;;;;;;5073701;28;20328;-66
2021/11/14 12:09:22;;;;;;;;;;;14.30;54.00;;;;;;5073667;28;19908;-66
2021/11/14 12:11:48;;;;;;;;;;;14.30;53.90;;;;;;5073624;28;20017;-66
2021/11/14 12:14:16;;;;;;;;;;;14.40;54.00;;;;;;5073305;28;19920;-65
2021/11/14 12:16:53;;;;;;;;;;;14.40;54.10;;;;;;5073527;28;20277;-66
2021/11/14 12:19:23;;;;;;;;;;;14.40;54.10;;;;;;5073470;28;20385;-66
2021/11/14 12:21:59;;;;;;;;;;;14.50;54.00;;;;;;5073186;28;19916;-65
2021/11/14 12:24:25;;;;;;;;;;;14.60;53.90;;;;;;5073492;28;20274;-66
2021/11/14 12:26:51;;;;;;;;;;;14.60;53.80;;;;;;5073435;28;19915;-66
2021/11/14 12:29:28;;;;;;;;;;;14.60;53.80;;;;;;5073413;28;19909;-66
2021/11/14 12:31:56;;;;;;;;;;;14.60;53.70;;;;;;5073260;28;19916;-67
2021/11/14 12:34:27;;;;;;;;;;;14.70;53.70;;;;;;5073238;28;20007;-67
2021/11/14 12:37:04;;;;;;;;;;;14.70;53.70;;;;;;5073274;28;19961;-67
2021/11/14 12:39:31;;;;;;;;;;;14.70;53.60;;;;;;5073233;28;20288;-67
2021/11/14 12:42:00;;;;;;;;;;;14.80;54.10;;;;;;5073211;28;19957;-67
2021/11/14 12:44:25;;;;;;;;;;;14.80;53.60;;;;;;5073139;28;19908;-66
2021/11/14 12:46:51;;;;;;;;;;;14.80;53.40;;;;;;5073051;28;19916;-67
2021/11/14 12:49:18;;;;;;;;;;;14.90;53.30;;;;;;5073042;28;19915;-67
2021/11/14 12:51:50;;;;;;;;;;;14.90;53.10;;;;;;5073043;28;19912;-67
2021/11/14 12:54:16;;;;;;;;;;;14.90;53.10;;;;;;5073023;28;19999;-66
2021/11/14 12:56:46;;;;;;;;;;;14.90;53.10;;;;;;5073012;28;19958;-67
2021/11/14 12:59:16;;;;;;;;;;;14.90;53.30;;;;;;5072896;28;20289;-66
2021/11/14 13:01:42;;;;;;;;;;;14.90;53.20;;;;;;5073247;28;19908;-66
2021/11/14 13:04:19;;;;;;;;;;;15.00;53.20;;;;;;5072909;28;20324;-66
2021/11/14 13:06:44;;;;;;;;;;;15.00;53.10;;;;;;5073054;28;19928;-67
2021/11/14 13:09:11;;;;;;;;;;;15.00;52.90;;;;;;5072937;28;19908;-67
2021/11/14 13:11:38;;;;;;;;;;;15.00;52.80;;;;;;5072874;28;20354;-66
2021/11/14 13:14:05;;;;;;;;;;;15.00;52.70;;;;;;5072659;28;19921;-66
2021/11/14 13:16:31;;;;;;;;;;;15.00;52.70;;;;;;5072838;28;19909;-66
2021/11/14 13:18:57;;;;;;;;;;;15.00;52.50;;;;;;5072722;28;20285;-67
2021/11/14 13:21:24;;;;;;;;;;;15.00;52.50;;;;;;5072718;28;19908;-67
2021/11/14 13:23:58;;;;;;;;;;;15.00;52.40;;;;;;5072761;28;19916;-67
2021/11/14 13:26:31;;;;;;;;;;;14.90;52.10;;;;;;5073131;28;19909;-67
2021/11/14 13:28:57;;;;;;;;;;;14.90;52.20;;;;;;5072820;28;19909;-67
2021/11/14 13:31:23;;;;;;;;;;;14.80;51.90;;;;;;5072954;28;19951;-67
2021/11/14 13:34:04;;;;;;;;;;;14.80;52.00;;;;;;5073551;28;19923;-67
2021/11/14 13:36:31;;;;;;;;;;;14.70;52.10;;;;;;5076867;28;19915;-67
2021/11/14 13:38:56;;;;;;;;;;;14.70;52.20;;;;;;5076248;28;20029;-66
2021/11/14 13:41:22;;;;;;;;;;;14.60;52.10;;;;;;5075159;28;19970;-66
2021/11/14 13:43:55;;;;;;;;;;;14.60;52.10;;;;;;5076401;28;19908;-66
2021/11/14 13:46:22;;;;;;;;;;;14.50;52.10;;;;;;5076305;28;19931;-67
2021/11/14 13:48:49;;;;;;;;;;;14.50;52.20;;;;;;5076210;28;20281;-67
2021/11/14 13:51:14;;;;;;;;;;;14.50;52.20;;;;;;5076259;28;19971;-67
2021/11/14 13:53:40;;;;;;;;;;;14.50;52.20;;;;;;5076222;28;20365;-67
2021/11/14 13:56:06;;;;;;;;;;;14.50;52.10;;;;;;5076059;28;19908;-67
2021/11/14 13:58:39;;;;;;;;;;;14.50;52.20;;;;;;5076113;28;19920;-67
2021/11/14 14:01:06;;;;;;;;;;;14.40;52.10;;;;;;5076413;28;19908;-67
2021/11/14 14:03:32;;;;;;;;;;;14.40;52.10;;;;;;5075705;28;19944;-66
2021/11/14 14:05:57;;;;;;;;;;;14.40;52.10;;;;;;5075848;28;19936;-67
2021/11/14 14:08:31;;;;;;;;;;;14.40;52.10;;;;;;5075859;28;19904;-66
2021/11/14 14:10:57;;;;;;;;;;;14.40;52.00;;;;;;5075999;28;19958;-66
2021/11/14 14:13:23;;;;;;;;;;;14.30;52.50;;;;;;5074165;28;20333;-67